createdAt,value
2023-02-06T00:01:38.448Z,23.60
2023-02-06T00:04:05.906Z,28.00
2023-02-06T00:06:33.970Z,27.17
2023-02-06T00:09:01.309Z,29.08
2023-02-06T00:11:28.804Z,28.35
2023-02-06T00:13:56.066Z,22.50
2023-02-06T00:16:29.152Z,33.25
2023-02-06T00:18:58.272Z,29.65
2023-02-06T00:21:27.238Z,39.40
2023-02-06T00:23:56.786Z,23.67
2023-02-06T00:26:24.851Z,32.85
2023-02-06T00:28:52.672Z,42.03
2023-02-06T00:31:19.967Z,28.60
2023-02-06T00:33:47.438Z,33.97
2023-02-06T00:36:14.902Z,22.85
2023-02-06T00:38:42.190Z,31.98
2023-02-06T00:41:09.441Z,37.38
2023-02-06T00:43:37.258Z,33.75
2023-02-06T00:46:04.732Z,29.85
2023-02-06T00:48:32.174Z,26.13
2023-02-06T00:50:59.506Z,31.38
2023-02-06T00:53:26.844Z,25.98
2023-02-06T00:55:54.118Z,30.13
2023-02-06T00:58:22.674Z,32.35
2023-02-06T01:00:49.969Z,16.30
2023-02-06T01:03:17.625Z,19.67
2023-02-06T01:05:44.913Z,27.92
2023-02-06T01:08:12.324Z,28.90
2023-02-06T01:10:43.797Z,19.85
2023-02-06T01:13:11.297Z,26.42
2023-02-06T01:15:41.544Z,24.75
2023-02-06T01:18:08.921Z,22.45
2023-02-06T01:20:36.251Z,31.30
2023-02-06T01:23:04.529Z,28.63
2023-02-06T01:25:32.245Z,29.88
2023-02-06T01:27:59.485Z,25.52
2023-02-06T01:30:26.931Z,40.10
2023-02-06T01:32:54.241Z,32.22
2023-02-06T01:35:21.658Z,34.15
2023-02-06T01:37:48.900Z,31.02
2023-02-06T01:40:17.197Z,25.95
2023-02-06T01:42:44.581Z,19.88
2023-02-06T01:45:35.311Z,25.35
2023-02-06T01:48:08.586Z,30.05
2023-02-06T01:50:38.510Z,26.77
2023-02-06T01:53:07.289Z,21.63
2023-02-06T01:55:37.817Z,29.35
2023-02-06T01:58:05.774Z,33.47
2023-02-06T02:00:33.192Z,24.45
2023-02-06T02:03:01.640Z,22.88
2023-02-06T02:05:33.022Z,30.70
2023-02-06T02:08:12.578Z,23.95
2023-02-06T02:10:40.468Z,27.15
2023-02-06T02:13:07.771Z,31.48
2023-02-06T02:15:48.905Z,20.95
2023-02-06T02:18:38.127Z,27.25
2023-02-06T02:21:24.217Z,30.95
2023-02-06T02:23:57.383Z,27.35
2023-02-06T02:26:29.853Z,31.95
2023-02-06T02:28:57.063Z,26.45
2023-02-06T02:31:27.179Z,51.25
2023-02-06T02:34:06.289Z,32.95
2023-02-06T02:37:05.278Z,34.53
2023-02-06T02:39:55.611Z,31.42
2023-02-06T02:42:34.883Z,31.90
2023-02-06T02:45:45.631Z,27.42
2023-02-06T02:48:22.369Z,25.58
2023-02-06T02:50:50.165Z,35.35
2023-02-06T02:53:17.516Z,25.38
2023-02-06T02:55:45.764Z,45.88
2023-02-06T02:58:19.276Z,29.50
2023-02-06T03:00:52.919Z,35.83
2023-02-06T03:03:28.683Z,41.53
2023-02-06T03:06:19.355Z,37.10
2023-02-06T03:08:59.000Z,28.48
2023-02-06T03:11:27.063Z,28.98
2023-02-06T03:14:06.155Z,32.28
2023-02-06T03:16:38.705Z,37.08
2023-02-06T03:19:18.542Z,37.33
2023-02-06T03:21:47.422Z,41.75
2023-02-06T03:24:19.641Z,30.60
2023-02-06T03:26:50.773Z,30.83
2023-02-06T03:29:19.585Z,29.05
2023-02-06T03:31:53.221Z,39.75
2023-02-06T03:34:28.951Z,37.80
2023-02-06T03:36:56.482Z,43.05
2023-02-06T03:39:23.995Z,29.80
2023-02-06T03:41:51.848Z,51.03
2023-02-06T03:44:24.055Z,37.50
2023-02-06T03:46:53.450Z,48.67
2023-02-06T03:49:24.355Z,46.10
2023-02-06T03:52:06.911Z,39.58
2023-02-06T03:54:39.240Z,40.92
2023-02-06T03:57:12.108Z,32.88
2023-02-06T03:59:39.426Z,36.75
2023-02-06T04:02:07.165Z,32.50
2023-02-06T04:04:39.764Z,41.33
2023-02-06T04:07:12.750Z,40.50
2023-02-06T04:09:40.790Z,44.05
2023-02-06T04:12:08.999Z,32.60
2023-02-06T04:14:36.821Z,34.15
2023-02-06T04:17:05.090Z,32.75
2023-02-06T04:19:33.315Z,28.92
2023-02-06T04:22:01.205Z,32.28
2023-02-06T04:24:30.852Z,46.95
2023-02-06T04:26:58.565Z,35.42
2023-02-06T04:29:26.152Z,44.97
2023-02-06T04:31:53.535Z,30.50
2023-02-06T04:34:20.752Z,37.80
2023-02-06T04:36:48.172Z,35.33
2023-02-06T04:39:15.504Z,32.53
2023-02-06T04:41:42.739Z,34.97
2023-02-06T04:44:10.003Z,37.00
2023-02-06T04:46:37.269Z,43.75
2023-02-06T04:49:04.761Z,31.30
2023-02-06T04:51:32.154Z,42.30
2023-02-06T04:53:59.430Z,33.35
2023-02-06T04:56:26.680Z,40.78
2023-02-06T04:58:53.977Z,37.10
2023-02-06T05:01:21.872Z,27.73
2023-02-06T05:03:49.418Z,35.53
2023-02-06T05:06:16.908Z,30.33
2023-02-06T05:08:44.266Z,26.85
2023-02-06T05:11:11.633Z,32.45
2023-02-06T05:13:38.909Z,32.88
2023-02-06T05:16:11.424Z,35.90
2023-02-06T05:18:39.238Z,35.05
2023-02-06T05:21:07.033Z,35.25
2023-02-06T05:23:34.526Z,34.38
2023-02-06T05:26:01.966Z,31.73
2023-02-06T05:28:29.909Z,37.92
2023-02-06T05:30:57.382Z,31.65
2023-02-06T05:33:24.698Z,33.70
2023-02-06T05:35:51.938Z,33.67
2023-02-06T05:38:19.554Z,36.03
2023-02-06T05:40:50.195Z,34.63
2023-02-06T05:43:17.548Z,34.50
2023-02-06T05:45:44.746Z,32.50
2023-02-06T05:48:12.114Z,41.83
2023-02-06T05:50:39.347Z,35.50
2023-02-06T05:53:16.526Z,48.15
2023-02-06T05:55:43.831Z,55.30
2023-02-06T05:58:11.585Z,51.88
2023-02-06T06:00:38.966Z,65.88
2023-02-06T06:03:06.230Z,46.47
2023-02-06T06:05:33.722Z,49.90
2023-02-06T06:08:01.249Z,76.10
2023-02-06T06:10:28.980Z,64.93
2023-02-06T06:12:57.051Z,54.92
2023-02-06T06:15:24.293Z,53.35
2023-02-06T06:17:51.567Z,54.72
2023-02-06T06:20:19.243Z,84.68
2023-02-06T06:22:46.568Z,76.22
2023-02-06T06:25:13.780Z,90.15
2023-02-06T06:27:41.166Z,47.35
2023-02-06T06:30:09.310Z,60.85
2023-02-06T06:32:37.127Z,77.32
2023-02-06T06:35:04.691Z,69.22
2023-02-06T06:37:31.982Z,156.82
2023-02-06T06:39:59.198Z,194.50
2023-02-06T06:42:26.518Z,208.20
2023-02-06T06:44:53.732Z,97.43
2023-02-06T06:47:21.061Z,40.13
2023-02-06T06:49:48.400Z,127.15
2023-02-06T06:52:24.514Z,116.72
2023-02-06T06:54:53.314Z,72.10
2023-02-06T06:57:22.029Z,85.97
2023-02-06T06:59:50.088Z,113.35
2023-02-06T07:02:17.558Z,46.67
2023-02-06T07:04:44.915Z,52.10
2023-02-06T07:07:12.321Z,36.88
2023-02-06T07:09:39.662Z,62.65
2023-02-06T07:12:07.163Z,43.53
2023-02-06T07:14:34.411Z,108.93
2023-02-06T07:17:01.801Z,152.68
2023-02-06T07:19:29.106Z,25.63
2023-02-06T07:21:56.418Z,96.85
2023-02-06T07:24:23.780Z,101.38
2023-02-06T07:26:51.018Z,57.95
2023-02-06T07:29:18.499Z,81.55
2023-02-06T07:31:45.900Z,63.78
2023-02-06T07:34:13.162Z,114.95
2023-02-06T07:36:40.538Z,48.42
2023-02-06T07:39:07.778Z,141.02
2023-02-06T07:41:35.072Z,38.30
2023-02-06T07:44:02.391Z,57.63
2023-02-06T07:46:29.659Z,53.42
2023-02-06T07:48:57.596Z,118.45
2023-02-06T07:51:24.871Z,45.13
2023-02-06T07:53:52.151Z,43.70
2023-02-06T07:56:23.101Z,81.13
2023-02-06T07:58:51.846Z,41.50
2023-02-06T08:01:20.218Z,40.15
2023-02-06T08:03:50.683Z,37.22
2023-02-06T08:06:19.103Z,61.28
2023-02-06T08:08:46.379Z,45.38
2023-02-06T08:11:16.252Z,24.83
2023-02-06T08:13:43.837Z,46.45
2023-02-06T08:16:14.566Z,33.55
2023-02-06T08:18:42.269Z,44.15
2023-02-06T08:21:18.622Z,29.67
2023-02-06T08:23:46.234Z,54.13
2023-02-06T08:26:16.031Z,31.42
2023-02-06T08:28:45.827Z,46.88
2023-02-06T08:31:18.966Z,31.83
2023-02-06T08:33:46.488Z,41.05
2023-02-06T08:36:15.979Z,74.07
2023-02-06T08:38:43.305Z,26.60
2023-02-06T08:41:22.357Z,33.35
2023-02-06T08:43:51.178Z,71.18
2023-02-06T08:46:20.279Z,18.35
2023-02-06T08:48:47.635Z,47.00
2023-02-06T08:51:15.356Z,31.98
2023-02-06T08:53:42.776Z,33.67
2023-02-06T08:56:12.148Z,41.75
2023-02-06T08:58:40.085Z,36.70
2023-02-06T09:01:09.772Z,18.30
2023-02-06T09:03:37.115Z,28.65
2023-02-06T09:06:10.294Z,38.80
2023-02-06T09:08:39.210Z,49.30
2023-02-06T09:11:08.572Z,17.80
2023-02-06T09:13:36.007Z,21.38
2023-02-06T09:16:04.254Z,28.60
2023-02-06T09:18:31.595Z,22.48
2023-02-06T09:21:13.280Z,37.13
2023-02-06T09:23:45.839Z,31.02
2023-02-06T09:26:23.144Z,41.00
2023-02-06T09:28:55.349Z,56.20
2023-02-06T09:31:22.688Z,24.15
2023-02-06T09:33:50.003Z,33.05
2023-02-06T09:36:19.570Z,26.40
2023-02-06T09:38:50.857Z,15.82
2023-02-06T09:41:31.615Z,37.88
2023-02-06T09:44:07.552Z,42.08
2023-02-06T09:46:36.969Z,40.20
2023-02-06T09:49:13.640Z,74.55
2023-02-06T09:52:01.132Z,42.97
2023-02-06T09:54:50.306Z,30.27
2023-02-06T09:57:25.802Z,20.83
2023-02-06T10:00:01.108Z,29.42
2023-02-06T10:02:41.202Z,36.63
2023-02-06T10:05:14.309Z,37.35
2023-02-06T10:08:06.335Z,37.85
2023-02-06T10:10:46.336Z,22.10
2023-02-06T10:13:22.388Z,35.60
2023-02-06T10:15:54.437Z,23.85
2023-02-06T10:18:29.649Z,46.38
2023-02-06T10:21:12.485Z,38.20
2023-02-06T10:23:49.880Z,29.48
2023-02-06T10:26:19.174Z,24.13
2023-02-06T10:28:55.967Z,24.88
2023-02-06T10:31:50.511Z,27.13
2023-02-06T10:34:27.519Z,22.63
2023-02-06T10:37:06.770Z,23.55
2023-02-06T10:40:04.486Z,21.55
2023-02-06T10:42:40.733Z,20.42
2023-02-06T10:45:25.278Z,16.92
2023-02-06T10:48:11.991Z,22.85
2023-02-06T10:50:48.507Z,22.00
2023-02-06T10:53:28.793Z,23.05
2023-02-06T10:56:16.478Z,30.10
2023-02-06T10:58:50.073Z,40.55
2023-02-06T11:01:25.957Z,41.90
2023-02-06T11:04:04.736Z,37.65
2023-02-06T11:06:32.755Z,46.53
2023-02-06T11:09:00.287Z,38.45
2023-02-06T11:11:36.129Z,38.30
2023-02-06T11:14:28.669Z,37.10
2023-02-06T11:16:59.546Z,36.22
2023-02-06T11:19:31.702Z,33.63
2023-02-06T11:22:05.748Z,37.92
2023-02-06T11:24:34.291Z,39.25
2023-02-06T11:27:11.504Z,41.80
2023-02-06T11:29:45.592Z,36.92
2023-02-06T11:32:27.732Z,36.33
2023-02-06T11:34:58.998Z,44.70
2023-02-06T11:37:35.573Z,40.95
2023-02-06T11:40:25.114Z,43.78
2023-02-06T11:43:12.566Z,46.80
2023-02-06T11:45:41.215Z,36.60
2023-02-06T11:48:31.074Z,35.88
2023-02-06T11:50:58.591Z,39.78
2023-02-06T11:53:26.147Z,37.72
2023-02-06T11:56:22.895Z,35.78
2023-02-06T11:59:07.140Z,40.88
2023-02-06T12:01:43.862Z,35.65
2023-02-06T12:04:31.904Z,35.65
2023-02-06T12:07:05.786Z,37.92
2023-02-06T12:09:33.059Z,34.78
2023-02-06T12:12:24.335Z,35.78
2023-02-06T12:15:00.118Z,31.00
2023-02-06T12:17:37.312Z,36.05
2023-02-06T12:20:20.519Z,32.45
2023-02-06T12:22:57.369Z,37.53
2023-02-06T12:25:38.838Z,32.10
2023-02-06T12:28:13.973Z,36.92
2023-02-06T12:31:04.910Z,35.08
2023-02-06T12:34:04.572Z,37.17
2023-02-06T12:36:38.351Z,34.55
2023-02-06T12:39:19.603Z,36.63
2023-02-06T12:41:52.998Z,47.20
2023-02-06T12:44:32.341Z,38.72
2023-02-06T12:47:13.664Z,36.38
2023-02-06T12:50:02.904Z,42.45
2023-02-06T12:52:39.090Z,37.42
2023-02-06T12:55:18.584Z,31.92
2023-02-06T12:57:46.014Z,32.47
2023-02-06T13:00:41.251Z,28.08
2023-02-06T13:03:20.967Z,28.05
2023-02-06T13:05:52.551Z,31.38
2023-02-06T13:08:31.000Z,24.45
2023-02-06T13:11:08.153Z,25.02
2023-02-06T13:13:40.268Z,26.77
2023-02-06T13:16:09.056Z,26.52
2023-02-06T13:18:44.470Z,20.85
2023-02-06T13:21:29.702Z,21.05
2023-02-06T13:24:03.161Z,23.88
2023-02-06T13:27:03.874Z,22.13
2023-02-06T13:29:33.536Z,22.80
2023-02-06T13:32:18.377Z,21.85
2023-02-06T13:35:07.540Z,28.27
2023-02-06T13:37:39.469Z,25.70
2023-02-06T13:40:25.781Z,25.15
2023-02-06T13:43:02.734Z,26.23
2023-02-06T13:45:49.308Z,21.45
2023-02-06T13:48:47.011Z,21.20
2023-02-06T13:51:29.361Z,19.58
2023-02-06T13:54:34.273Z,26.55
2023-02-06T13:57:19.080Z,19.63
2023-02-06T13:59:51.781Z,22.35
2023-02-06T14:02:56.297Z,22.85
2023-02-06T14:05:36.842Z,23.25
2023-02-06T14:08:24.609Z,19.48
2023-02-06T14:11:20.109Z,18.90
2023-02-06T14:14:16.556Z,20.70
2023-02-06T14:17:09.833Z,17.30
2023-02-06T14:19:42.876Z,18.35
2023-02-06T14:22:36.859Z,16.88
2023-02-06T14:25:13.227Z,22.15
2023-02-06T14:28:12.114Z,21.70
2023-02-06T14:31:04.990Z,17.63
2023-02-06T14:33:54.517Z,20.73
2023-02-06T14:36:51.237Z,18.00
2023-02-06T14:39:36.350Z,17.35
2023-02-06T14:42:13.181Z,23.52
2023-02-06T14:44:42.834Z,19.08
2023-02-06T14:47:20.553Z,17.73
2023-02-06T14:49:48.935Z,20.77
2023-02-06T14:52:21.617Z,25.67
2023-02-06T14:54:49.116Z,20.35
2023-02-06T14:57:26.730Z,26.70
2023-02-06T15:00:05.884Z,17.13
2023-02-06T15:02:35.996Z,21.60
2023-02-06T15:05:05.075Z,20.50
2023-02-06T15:07:37.821Z,17.02
2023-02-06T15:10:13.213Z,19.83
2023-02-06T15:12:41.294Z,18.92
2023-02-06T15:15:20.435Z,21.35
2023-02-06T15:18:16.257Z,16.42
2023-02-06T15:20:45.851Z,19.00
2023-02-06T15:23:44.772Z,16.92
2023-02-06T15:26:43.354Z,18.27
2023-02-06T15:29:23.014Z,20.48
2023-02-06T15:31:53.037Z,17.85
2023-02-06T15:34:24.290Z,18.67
2023-02-06T15:36:52.391Z,16.50
2023-02-06T15:39:20.247Z,16.58
2023-02-06T15:41:50.486Z,22.23
2023-02-06T15:44:38.165Z,18.35
2023-02-06T15:47:11.131Z,19.25
2023-02-06T15:49:42.392Z,19.95
2023-02-06T15:52:15.249Z,17.58
2023-02-06T15:54:45.008Z,20.73
2023-02-06T15:57:27.758Z,20.52
2023-02-06T15:59:56.922Z,17.73
2023-02-06T16:02:34.348Z,20.23
2023-02-06T16:05:02.657Z,18.20
2023-02-06T16:07:35.908Z,21.48
2023-02-06T16:10:20.605Z,21.25
2023-02-06T16:12:48.522Z,19.25
2023-02-06T16:15:38.622Z,23.38
2023-02-06T16:18:39.490Z,24.35
2023-02-06T16:21:15.847Z,19.55
2023-02-06T16:23:50.740Z,16.10
2023-02-06T16:26:19.456Z,19.08
2023-02-06T16:29:29.942Z,22.40
2023-02-06T16:32:02.577Z,20.08
2023-02-06T16:34:36.721Z,22.15
2023-02-06T16:37:10.780Z,23.10
2023-02-06T16:39:42.218Z,14.70
2023-02-06T16:42:34.216Z,24.30
2023-02-06T16:45:06.475Z,20.75
2023-02-06T16:47:33.834Z,19.23
2023-02-06T16:50:01.264Z,18.02
2023-02-06T16:52:31.636Z,22.20
2023-02-06T16:55:00.084Z,25.42
2023-02-06T16:57:39.101Z,23.13
2023-02-06T17:00:33.125Z,22.70
2023-02-06T17:03:00.837Z,21.02
2023-02-06T17:05:28.985Z,30.77
2023-02-06T17:07:56.425Z,26.67
2023-02-06T17:10:26.168Z,22.58
2023-02-06T17:12:54.098Z,24.33
2023-02-06T17:15:21.511Z,24.13
2023-02-06T17:17:48.836Z,23.63
2023-02-06T17:20:35.005Z,25.70
2023-02-06T17:23:02.619Z,22.40
2023-02-06T17:25:30.284Z,27.02
2023-02-06T17:27:58.145Z,25.33
2023-02-06T17:30:26.149Z,26.27
2023-02-06T17:32:54.127Z,29.70
2023-02-06T17:35:21.575Z,23.13
2023-02-06T17:37:49.234Z,19.70
2023-02-06T17:40:20.162Z,24.80
2023-02-06T17:42:48.825Z,22.35
2023-02-06T17:45:16.441Z,21.40
2023-02-06T17:47:44.441Z,21.10
2023-02-06T17:50:20.272Z,23.98
2023-02-06T17:52:48.358Z,24.83
2023-02-06T17:55:17.039Z,28.63
2023-02-06T17:57:44.458Z,24.17
2023-02-06T18:00:15.307Z,25.98
2023-02-06T18:02:42.959Z,25.88
2023-02-06T18:05:11.006Z,24.13
2023-02-06T18:07:39.082Z,29.98
2023-02-06T18:10:08.212Z,33.92
2023-02-06T18:12:36.079Z,29.60
2023-02-06T18:15:05.270Z,36.80
2023-02-06T18:17:32.765Z,23.92
2023-02-06T18:20:00.363Z,30.95
2023-02-06T18:22:27.853Z,28.23
2023-02-06T18:24:55.119Z,29.13
2023-02-06T18:27:23.198Z,31.08
2023-02-06T18:29:54.869Z,29.67
2023-02-06T18:32:22.287Z,26.58
2023-02-06T18:34:49.733Z,26.15
2023-02-06T18:37:17.170Z,25.00
2023-02-06T18:39:44.575Z,24.10
2023-02-06T18:42:31.374Z,30.25
2023-02-06T18:44:58.637Z,26.05
2023-02-06T18:47:25.906Z,28.23
2023-02-06T18:49:53.245Z,33.17
2023-02-06T18:52:20.752Z,36.08
2023-02-06T18:54:48.736Z,26.42
2023-02-06T18:57:16.020Z,37.35
2023-02-06T18:59:43.332Z,27.30
2023-02-06T19:02:11.765Z,32.83
2023-02-06T19:04:40.540Z,29.17
2023-02-06T19:07:08.916Z,26.10
2023-02-06T19:09:36.177Z,27.98
2023-02-06T19:12:03.978Z,26.98
2023-02-06T19:14:31.242Z,28.75
2023-02-06T19:16:58.603Z,27.20
2023-02-06T19:19:26.045Z,36.17
2023-02-06T19:21:53.555Z,30.15
2023-02-06T19:24:20.810Z,29.80
2023-02-06T19:26:48.223Z,38.22
2023-02-06T19:29:34.402Z,44.50
2023-02-06T19:32:07.609Z,37.28
2023-02-06T19:34:37.116Z,38.80
2023-02-06T19:37:06.240Z,34.63
2023-02-06T19:39:34.436Z,29.40
2023-02-06T19:42:04.562Z,30.52
2023-02-06T19:44:33.465Z,26.45
2023-02-06T19:47:00.757Z,32.25
2023-02-06T19:49:28.095Z,35.97
2023-02-06T19:51:55.466Z,26.13
2023-02-06T19:54:22.771Z,30.50
2023-02-06T19:56:50.152Z,23.52
2023-02-06T19:59:26.259Z,30.73
2023-02-06T20:01:58.765Z,29.02
2023-02-06T20:04:29.085Z,32.42
2023-02-06T20:06:57.285Z,44.20
2023-02-06T20:09:25.750Z,37.13
2023-02-06T20:11:53.116Z,42.03
2023-02-06T20:14:20.907Z,26.33
2023-02-06T20:16:49.252Z,29.13
2023-02-06T20:19:24.342Z,32.65
2023-02-06T20:21:54.791Z,29.38
2023-02-06T20:24:25.647Z,29.00
2023-02-06T20:26:56.311Z,25.27
2023-02-06T20:29:29.341Z,33.08
2023-02-06T20:31:57.458Z,32.97
2023-02-06T20:34:25.778Z,31.90
2023-02-06T20:36:54.611Z,29.73
2023-02-06T20:39:22.276Z,28.38
2023-02-06T20:41:50.358Z,34.00
2023-02-06T20:44:19.879Z,27.08
2023-02-06T20:46:47.542Z,31.92
2023-02-06T20:49:27.565Z,39.85
2023-02-06T20:51:55.194Z,29.38
2023-02-06T20:54:23.764Z,34.22
2023-02-06T20:56:51.683Z,25.60
2023-02-06T20:59:20.168Z,26.58
2023-02-06T21:01:50.777Z,32.88
2023-02-06T21:04:28.013Z,26.98
2023-02-06T21:06:56.589Z,41.00
2023-02-06T21:09:26.799Z,28.83
2023-02-06T21:11:54.491Z,30.00
2023-02-06T21:14:22.244Z,36.83
2023-02-06T21:16:52.908Z,32.35
2023-02-06T21:19:21.542Z,32.80
2023-02-06T21:21:52.007Z,33.45
2023-02-06T21:24:19.436Z,36.20
2023-02-06T21:26:47.385Z,31.05
2023-02-06T21:29:16.343Z,34.38
2023-02-06T21:31:46.609Z,32.42
2023-02-06T21:34:18.074Z,43.53
2023-02-06T21:36:47.613Z,37.50
2023-02-06T21:39:22.929Z,37.83
2023-02-06T21:41:59.640Z,37.67
2023-02-06T21:44:29.267Z,36.33
2023-02-06T21:46:57.629Z,32.40
2023-02-06T21:49:25.366Z,36.33
2023-02-06T21:51:54.702Z,33.45
2023-02-06T21:54:23.208Z,31.05
2023-02-06T21:56:51.789Z,30.02
2023-02-06T21:59:21.506Z,31.70
2023-02-06T22:01:50.212Z,29.42
2023-02-06T22:04:18.782Z,32.33
2023-02-06T22:06:48.158Z,36.72
2023-02-06T22:09:16.899Z,29.00
2023-02-06T22:11:46.608Z,38.58
2023-02-06T22:14:18.283Z,39.03
2023-02-06T22:16:46.912Z,36.40
2023-02-06T22:19:15.838Z,46.08
2023-02-06T22:21:44.908Z,41.65
2023-02-06T22:24:15.241Z,43.00
2023-02-06T22:26:44.393Z,37.78
2023-02-06T22:29:15.651Z,40.15
2023-02-06T22:31:45.169Z,42.60
2023-02-06T22:34:21.086Z,46.70
2023-02-06T22:36:51.431Z,38.15
2023-02-06T22:39:19.684Z,44.70
2023-02-06T22:41:55.331Z,31.80
2023-02-06T22:44:23.015Z,43.42
2023-02-06T22:46:53.303Z,37.53
2023-02-06T22:49:24.208Z,47.63
2023-02-06T22:51:52.202Z,40.78
2023-02-06T22:54:21.245Z,46.88
2023-02-06T22:56:48.963Z,42.28
2023-02-06T22:59:25.324Z,49.67
2023-02-06T23:01:58.144Z,42.88
2023-02-06T23:04:29.882Z,40.83
2023-02-06T23:06:57.750Z,37.30
2023-02-06T23:09:28.557Z,54.00
2023-02-06T23:11:58.398Z,42.92
2023-02-06T23:14:27.481Z,49.97
2023-02-06T23:16:54.991Z,48.92
2023-02-06T23:19:22.692Z,49.83
2023-02-06T23:21:53.999Z,43.60
2023-02-06T23:24:21.310Z,48.38
2023-02-06T23:26:50.887Z,38.30
2023-02-06T23:29:19.377Z,42.28
2023-02-06T23:31:47.621Z,45.53
2023-02-06T23:34:16.191Z,47.50
2023-02-06T23:36:43.818Z,44.55
2023-02-06T23:39:11.930Z,51.58
2023-02-06T23:41:39.659Z,43.65
2023-02-06T23:44:08.181Z,39.67
2023-02-06T23:46:38.129Z,43.70
2023-02-06T23:49:06.387Z,46.63
2023-02-06T23:51:35.040Z,42.03
2023-02-06T23:54:02.615Z,47.38
2023-02-06T23:56:31.262Z,47.95
2023-02-06T23:59:00.809Z,45.65
